Time;durP1;ratioP1;P1;durP2;ratioP2;P2;SDS_P1;SDS_P2;PMS_P1;PMS_P2;Temp;Humidity;BMP_temperature;BMP_pressure;BME280_temperature;BME280_humidity;BME280_pressure;Samples;Min_cycle;Max_cycle;Signal;HPM_P1;HPM_P2
2021/06/26 00:02:18;;;;;;;21.93;16.10;;;17.00;99.90;;;;;;5053878;28;20209;-65
2021/06/26 00:04:45;;;;;;;20.80;15.13;;;17.00;99.90;;;;;;5053442;28;20233;-64
2021/06/26 00:07:11;;;;;;;23.40;14.90;;;16.90;99.90;;;;;;5053731;28;20623;-65
2021/06/26 00:09:38;;;;;;;19.50;14.90;;;16.90;99.90;;;;;;5053392;28;20209;-64
2021/06/26 00:12:05;;;;;;;21.20;15.10;;;16.80;99.90;;;;;;5052722;28;20688;-64
2021/06/26 00:14:33;;;;;;;19.90;14.80;;;16.80;99.90;;;;;;5052127;28;20229;-64
2021/06/26 00:17:00;;;;;;;20.83;15.13;;;16.70;99.90;;;;;;5053393;28;20263;-65
2021/06/26 00:19:26;;;;;;;20.97;15.77;;;16.60;99.90;;;;;;5053408;28;20218;-64
2021/06/26 00:21:53;;;;;;;18.30;14.90;;;16.60;99.90;;;;;;5053128;28;20201;-65
2021/06/26 00:24:20;;;;;;;20.23;14.97;;;16.50;99.90;;;;;;5052058;28;20213;-64
2021/06/26 00:26:49;;;;;;;20.17;14.67;;;16.40;99.90;;;;;;5053165;28;20626;-64
2021/06/26 00:29:15;;;;;;;19.37;14.87;;;16.40;99.90;;;;;;5053437;28;20214;-65
2021/06/26 00:31:43;;;;;;;20.37;15.83;;;16.30;99.90;;;;;;5053036;28;20255;-65
2021/06/26 00:34:10;;;;;;;19.67;15.50;;;16.30;99.90;;;;;;5053032;28;20630;-64
2021/06/26 00:36:36;;;;;;;22.67;15.60;;;16.30;99.90;;;;;;5051993;28;20233;-65
2021/06/26 00:39:04;;;;;;;19.30;15.07;;;16.20;1.00;;;;;;5053181;28;20257;-65
2021/06/26 00:41:30;;;;;;;20.63;16.03;;;16.10;1.00;;;;;;5052164;28;20209;-65
2021/06/26 00:43:57;;;;;;;20.77;15.73;;;16.10;1.00;;;;;;5052994;28;20209;-64
2021/06/26 00:46:24;;;;;;;21.27;16.27;;;16.00;1.00;;;;;;5052860;28;20283;-64
2021/06/26 00:48:52;;;;;;;24.93;17.23;;;16.00;1.00;;;;;;5052730;28;20674;-64
2021/06/26 00:51:18;;;;;;;22.20;16.63;;;15.90;1.00;;;;;;5052846;28;20210;-65
2021/06/26 00:53:45;;;;;;;23.87;17.17;;;15.90;1.00;;;;;;5051840;28;20663;-65
2021/06/26 00:56:13;;;;;;;22.47;17.93;;;15.90;1.00;;;;;;5052697;28;20229;-64
2021/06/26 00:58:40;;;;;;;21.00;16.73;;;15.80;1.00;;;;;;5052731;28;20209;-64
2021/06/26 01:01:09;;;;;;;22.30;18.00;;;15.70;1.00;;;;;;5053653;28;20228;-65
2021/06/26 01:03:35;;;;;;;22.17;17.23;;;15.70;1.00;;;;;;5052740;28;20210;-64
2021/06/26 01:06:03;;;;;;;25.40;19.23;;;15.70;1.00;;;;;;5052662;28;20221;-65
2021/06/26 01:08:31;;;;;;;24.00;18.40;;;15.60;1.00;;;;;;5051554;28;20217;-64
2021/06/26 01:10:57;;;;;;;22.50;17.60;;;15.60;1.00;;;;;;5052546;28;20201;-66
2021/06/26 01:13:24;;;;;;;25.13;19.27;;;15.50;1.00;;;;;;5051563;28;20217;-64
2021/06/26 01:15:51;;;;;;;23.77;17.50;;;15.50;1.30;;;;;;5052376;28;20649;-64
2021/06/26 01:18:18;;;;;;;24.60;18.20;;;15.50;7.60;;;;;;5051737;28;20665;-65
2021/06/26 01:20:45;;;;;;;26.47;18.60;;;15.50;33.60;;;;;;5051348;28;20291;-64
2021/06/26 01:23:13;;;;;;;28.77;17.97;;;15.40;68.80;;;;;;5052472;28;20206;-64
2021/06/26 01:25:40;;;;;;;24.77;18.13;;;15.40;97.80;;;;;;5051337;28;20240;-65
2021/06/26 01:28:07;;;;;;;27.13;17.60;;;15.30;99.90;;;;;;5052084;28;20255;-65
2021/06/26 01:30:36;;;;;;;23.60;18.43;;;15.30;99.90;;;;;;5051859;28;20201;-65
2021/06/26 01:33:03;;;;;;;26.07;19.20;;;15.30;99.90;;;;;;5052432;28;20205;-64
2021/06/26 01:35:30;;;;;;;28.53;19.63;;;15.30;99.90;;;;;;5051344;28;20708;-65
2021/06/26 01:37:58;;;;;;;24.63;18.57;;;15.20;99.90;;;;;;5052186;28;20259;-64
2021/06/26 01:40:28;;;;;;;23.20;18.53;;;15.20;99.90;;;;;;5051786;28;20264;-65
2021/06/26 01:42:56;;;;;;;25.83;19.23;;;15.10;99.90;;;;;;5052121;28;20205;-65
2021/06/26 01:45:24;;;;;;;27.07;19.47;;;15.10;99.90;;;;;;5051576;28;20237;-64
2021/06/26 01:47:52;;;;;;;24.43;19.63;;;15.10;99.90;;;;;;5051509;28;20262;-64
2021/06/26 01:50:21;;;;;;;28.80;21.00;;;15.10;99.90;;;;;;5051633;28;20201;-64
2021/06/26 01:52:49;;;;;;;25.97;20.67;;;15.10;99.90;;;;;;5051933;28;20208;-65
2021/06/26 01:55:17;;;;;;;28.03;20.00;;;15.10;99.90;;;;;;5051352;28;20233;-65
2021/06/26 01:57:46;;;;;;;27.93;20.73;;;15.00;99.90;;;;;;5051565;28;20209;-64
2021/06/26 02:00:13;;;;;;;28.67;20.20;;;15.00;99.90;;;;;;5052011;28;20233;-64
2021/06/26 02:02:40;;;;;;;28.73;21.03;;;15.00;99.90;;;;;;5051968;28;20255;-64
2021/06/26 02:05:09;;;;;;;26.83;21.20;;;15.00;99.90;;;;;;5051777;28;20221;-64
2021/06/26 02:07:35;;;;;;;29.63;19.20;;;15.00;1.00;;;;;;5051693;28;20262;-65
2021/06/26 02:10:03;;;;;;;29.13;20.17;;;15.00;1.00;;;;;;5051725;28;20250;-64
2021/06/26 02:12:29;;;;;;;31.30;20.93;;;15.00;1.00;;;;;;5051695;28;20216;-64
2021/06/26 02:14:57;;;;;;;35.80;22.23;;;15.00;1.00;;;;;;5051031;28;20228;-65
2021/06/26 02:17:24;;;;;;;30.30;21.00;;;14.90;44.50;;;;;;5051527;28;20209;-64
2021/06/26 02:19:51;;;;;;;30.93;21.07;;;14.90;99.90;;;;;;5051654;28;20714;-64
2021/06/26 02:22:18;;;;;;;34.90;22.27;;;14.90;99.90;;;;;;5051494;28;20209;-64
2021/06/26 02:24:46;;;;;;;30.43;22.30;;;14.90;99.90;;;;;;5049807;28;20236;-65
2021/06/26 02:27:12;;;;;;;30.07;21.50;;;14.80;99.90;;;;;;5051676;28;20681;-64
2021/06/26 02:29:39;;;;;;;32.50;21.50;;;14.80;99.90;;;;;;5051451;28;20723;-65
2021/06/26 02:32:08;;;;;;;26.83;21.90;;;14.80;99.90;;;;;;5051640;28;20223;-64
2021/06/26 02:34:34;;;;;;;34.37;22.57;;;14.80;99.90;;;;;;5050482;28;20231;-64
2021/06/26 02:37:02;;;;;;;30.53;22.27;;;14.80;99.90;;;;;;5051668;28;20208;-65
2021/06/26 02:39:28;;;;;;;29.03;20.93;;;14.70;99.90;;;;;;5050976;28;20215;-64
2021/06/26 02:41:55;;;;;;;29.63;20.67;;;14.70;99.90;;;;;;5051498;28;20703;-65
2021/06/26 02:44:22;;;;;;;30.20;22.50;;;14.70;99.90;;;;;;5051087;28;20738;-65
2021/06/26 02:46:50;;;;;;;29.37;22.50;;;14.70;99.90;;;;;;5051500;28;20213;-64
2021/06/26 02:49:18;;;;;;;32.27;23.73;;;14.70;99.90;;;;;;5051256;28;20210;-64
2021/06/26 02:51:45;;;;;;;31.50;23.37;;;14.70;1.00;;;;;;5051255;28;20208;-65
2021/06/26 02:54:11;;;;;;;32.00;24.70;;;14.70;1.00;;;;;;5051032;28;20217;-64
2021/06/26 02:56:38;;;;;;;31.83;22.63;;;14.70;1.00;;;;;;5051462;28;20212;-64
2021/06/26 02:59:04;;;;;;;37.30;23.00;;;14.60;1.00;;;;;;5050290;28;20568;-64
2021/06/26 03:01:31;;;;;;;32.23;23.33;;;14.60;1.00;;;;;;5051215;28;20228;-64
2021/06/26 03:03:57;;;;;;;34.07;21.90;;;14.60;1.00;;;;;;5052331;28;20730;-65
2021/06/26 03:06:25;;;;;;;31.67;23.80;;;14.50;1.00;;;;;;5054557;28;20235;-64
2021/06/26 03:08:52;;;;;;;30.00;22.40;;;14.60;1.00;;;;;;5054191;28;20266;-64
2021/06/26 03:11:19;;;;;;;30.47;23.33;;;14.50;19.70;;;;;;5054735;28;20205;-64
2021/06/26 03:13:45;;;;;;;29.80;22.70;;;14.50;88.60;;;;;;5054769;28;20221;-64
2021/06/26 03:16:12;;;;;;;38.93;25.93;;;14.50;99.90;;;;;;5054583;28;20299;-64
2021/06/26 03:18:43;;;;;;;38.73;25.63;;;14.50;99.90;;;;;;5054466;28;20259;-64
2021/06/26 03:21:09;;;;;;;35.30;25.07;;;14.50;99.90;;;;;;5054291;28;20337;-65
2021/06/26 03:23:38;;;;;;;31.00;23.00;;;14.50;99.90;;;;;;5054447;28;20205;-64
2021/06/26 03:26:05;;;;;;;32.17;24.07;;;14.50;99.90;;;;;;5054266;28;20233;-64
2021/06/26 03:28:32;;;;;;;30.93;22.40;;;14.40;99.90;;;;;;5052532;28;20695;-64
2021/06/26 03:30:59;;;;;;;35.07;23.20;;;14.50;99.90;;;;;;5054196;28;20292;-65
2021/06/26 03:33:26;;;;;;;33.07;24.97;;;14.50;99.90;;;;;;5054200;28;20217;-65
2021/06/26 03:35:52;;;;;;;37.73;25.07;;;14.50;99.90;;;;;;5054313;28;20240;-65
2021/06/26 03:38:19;;;;;;;34.10;25.13;;;14.50;99.90;;;;;;5054016;28;20253;-65
2021/06/26 03:40:49;;;;;;;36.43;25.30;;;14.50;99.90;;;;;;5053697;28;20287;-65
2021/06/26 03:43:15;;;;;;;34.07;24.87;;;14.50;99.90;;;;;;5053823;28;20213;-65
2021/06/26 03:45:42;;;;;;;39.43;25.07;;;14.50;99.90;;;;;;5053892;28;20233;-65
2021/06/26 03:48:09;;;;;;;33.70;25.03;;;14.50;99.90;;;;;;5053765;28;20343;-65
2021/06/26 03:50:37;;;;;;;37.67;25.27;;;14.50;1.00;;;;;;5053995;28;20209;-64
2021/06/26 03:53:04;;;;;;;33.00;24.90;;;14.50;1.00;;;;;;5053797;28;20217;-65
2021/06/26 03:55:31;;;;;;;31.33;23.10;;;14.50;1.00;;;;;;5052842;28;20271;-65
2021/06/26 03:57:59;;;;;;;32.70;24.37;;;14.60;1.00;;;;;;5053863;28;20239;-65
2021/06/26 04:00:25;;;;;;;34.10;23.93;;;14.60;1.00;;;;;;5053985;28;20629;-65
2021/06/26 04:02:52;;;;;;;33.33;24.73;;;14.60;1.00;;;;;;5053473;28;20262;-65
2021/06/26 04:05:18;;;;;;;35.17;24.53;;;14.60;1.00;;;;;;5053591;28;20250;-65
2021/06/26 04:07:45;;;;;;;34.67;24.63;;;14.70;1.00;;;;;;5053752;28;20262;-66
2021/06/26 04:10:12;;;;;;;35.97;25.27;;;14.70;1.00;;;;;;5053303;28;20623;-65
2021/06/26 04:12:39;;;;;;;38.50;26.60;;;14.80;13.10;;;;;;5053878;28;20210;-66
2021/06/26 04:15:08;;;;;;;33.87;24.30;;;14.90;92.80;;;;;;5053315;28;20306;-66
2021/06/26 04:17:35;;;;;;;31.97;24.33;;;14.90;99.90;;;;;;5053956;28;20217;-65
2021/06/26 04:20:01;;;;;;;33.63;23.60;;;15.00;94.20;;;;;;5054566;28;20639;-66
2021/06/26 04:22:28;;;;;;;32.90;23.30;;;15.10;13.20;;;;;;5054851;28;20206;-64
2021/06/26 04:24:54;;;;;;;33.90;24.30;;;15.20;1.00;;;;;;5053735;28;20229;-65
2021/06/26 04:27:21;;;;;;;31.37;23.20;;;15.30;1.00;;;;;;5054034;28;20613;-65
2021/06/26 04:29:48;;;;;;;29.67;23.50;;;15.40;1.00;;;;;;5051613;28;20210;-66
2021/06/26 04:32:16;;;;;;;34.03;23.63;;;15.50;1.00;;;;;;5053451;28;20252;-65
2021/06/26 04:34:42;;;;;;;31.47;22.30;;;15.60;1.00;;;;;;5053152;28;20276;-66
2021/06/26 04:37:09;;;;;;;35.73;23.90;;;15.70;99.90;;;;;;5053272;28;20209;-65
2021/06/26 04:39:35;;;;;;;28.93;21.77;;;15.70;99.90;;;;;;5052038;28;20682;-65
2021/06/26 04:42:02;;;;;;;32.83;22.57;;;15.80;1.00;;;;;;5053288;28;20701;-65
2021/06/26 04:44:29;;;;;;;29.17;21.93;;;15.90;1.00;;;;;;5052788;28;20251;-66
2021/06/26 04:46:56;;;;;;;30.60;21.70;;;16.00;1.00;;;;;;5053358;28;20240;-65
2021/06/26 04:49:24;;;;;;;31.37;22.23;;;16.10;1.00;;;;;;5051987;28;20732;-65
2021/06/26 04:51:50;;;;;;;30.20;21.90;;;16.10;99.90;;;;;;5052855;28;20232;-65
2021/06/26 04:54:17;;;;;;;33.23;23.63;;;16.20;99.90;;;;;;5052663;28;20210;-65
2021/06/26 04:56:44;;;;;;;31.20;22.27;;;16.30;99.90;;;;;;5052299;28;20275;-65
2021/06/26 04:59:10;;;;;;;30.00;22.17;;;16.30;99.90;;;;;;5052520;28;20267;-66
2021/06/26 05:01:37;;;;;;;33.83;23.23;;;16.40;99.90;;;;;;5055319;28;20228;-62
2021/06/26 05:04:04;;;;;;;32.70;23.77;;;16.50;1.00;;;;;;5063476;28;20220;-65
2021/06/26 05:06:32;;;;;;;33.53;25.20;;;16.50;1.00;;;;;;5071133;28;20349;-65
2021/06/26 05:08:59;;;;;;;33.47;24.50;;;16.60;1.00;;;;;;5072527;28;20211;-65
2021/06/26 05:11:25;;;;;;;30.70;25.00;;;16.60;1.00;;;;;;5072246;28;20200;-65
2021/06/26 05:13:52;;;;;;;34.83;24.57;;;16.70;99.90;;;;;;5073063;28;20204;-65
2021/06/26 05:16:19;;;;;;;36.00;25.53;;;16.80;99.90;;;;;;5071807;28;20229;-65
2021/06/26 05:18:45;;;;;;;34.53;25.67;;;16.80;99.90;;;;;;5072289;28;20208;-65
2021/06/26 05:21:12;;;;;;;37.67;26.30;;;16.90;99.90;;;;;;5072315;28;20251;-66
2021/06/26 05:23:40;;;;;;;35.07;25.87;;;17.00;99.90;;;;;;5071408;28;20770;-65
2021/06/26 05:26:09;;;;;;;35.47;26.07;;;17.00;99.90;;;;;;5071259;28;20225;-65
2021/06/26 05:28:36;;;;;;;36.07;26.43;;;17.10;99.90;;;;;;5072048;28;20747;-65
2021/06/26 05:31:02;;;;;;;36.30;26.43;;;17.20;99.90;;;;;;5072104;28;20201;-65
2021/06/26 05:33:29;;;;;;;31.40;25.27;;;17.30;99.90;;;;;;5070548;28;20237;-65
2021/06/26 05:35:56;;;;;;;32.03;25.37;;;17.40;99.90;;;;;;5071957;28;20302;-65
2021/06/26 05:38:22;;;;;;;33.20;24.93;;;17.50;50.40;;;;;;5071948;28;20255;-65
2021/06/26 05:40:50;;;;;;;33.30;24.80;;;17.60;55.80;;;;;;5071844;28;20305;-65
2021/06/26 05:43:17;;;;;;;31.63;23.63;;;17.70;37.50;;;;;;5070779;28;20669;-65
2021/06/26 05:45:43;;;;;;;34.47;24.87;;;17.80;8.80;;;;;;5071922;28;20225;-65
2021/06/26 05:48:10;;;;;;;35.47;26.73;;;17.90;1.00;;;;;;5071894;28;20582;-65
2021/06/26 05:50:37;;;;;;;37.83;27.73;;;18.00;1.00;;;;;;5071388;28;20208;-66
2021/06/26 05:53:04;;;;;;;37.50;26.37;;;18.10;1.00;;;;;;5071389;28;20205;-66
2021/06/26 05:55:31;;;;;;;35.93;26.73;;;18.20;1.00;;;;;;5071486;28;20237;-66
2021/06/26 05:57:59;;;;;;;39.77;26.67;;;18.30;1.00;;;;;;5072173;28;20216;-66
2021/06/26 06:00:27;;;;;;;36.53;27.13;;;18.50;1.00;;;;;;5070965;28;20677;-65
2021/06/26 06:02:53;;;;;;;40.80;27.57;;;18.50;1.00;;;;;;5072049;28;20267;-65
2021/06/26 06:05:20;;;;;;;35.37;26.87;;;18.50;1.00;;;;;;5071722;28;20220;-65
2021/06/26 06:07:47;;;;;;;35.33;25.83;;;18.50;1.00;;;;;;5072151;28;20201;-65
2021/06/26 06:10:16;;;;;;;36.73;26.43;;;18.60;1.00;;;;;;5071358;28;20204;-65
2021/06/26 06:12:44;;;;;;;39.00;27.53;;;18.70;1.00;;;;;;5072207;28;20204;-65
2021/06/26 06:15:13;;;;;;;34.17;26.37;;;18.70;1.00;;;;;;5071447;28;20286;-66
2021/06/26 06:17:40;;;;;;;31.90;25.07;;;18.70;1.00;;;;;;5071427;28;20254;-66
2021/06/26 06:20:08;;;;;;;33.67;25.27;;;18.70;1.00;;;;;;5071207;28;20614;-65
2021/06/26 06:22:36;;;;;;;38.27;25.93;;;18.80;1.00;;;;;;5071709;28;20224;-65
2021/06/26 06:25:05;;;;;;;31.40;23.93;;;18.80;99.90;;;;;;5071557;28;20637;-65
2021/06/26 06:27:33;;;;;;;32.03;23.87;;;19.00;99.90;;;;;;5071693;28;20204;-66
2021/06/26 06:30:00;;;;;;;28.47;22.30;;;19.00;99.90;;;;;;5064429;28;20266;-66
2021/06/26 06:32:28;;;;;;;31.77;23.17;;;19.10;99.90;;;;;;5062460;28;20248;-65
2021/06/26 06:34:54;;;;;;;34.27;24.40;;;19.20;99.90;;;;;;5066551;28;20692;-67
2021/06/26 06:37:21;;;;;;;31.87;24.27;;;19.10;99.90;;;;;;5066666;28;20205;-68
2021/06/26 06:39:48;;;;;;;33.03;23.97;;;19.10;99.90;;;;;;5071102;28;20209;-67
2021/06/26 06:42:14;;;;;;;30.63;23.50;;;19.10;99.90;;;;;;5072461;28;20560;-67
2021/06/26 06:44:41;;;;;;;29.77;22.63;;;19.10;99.90;;;;;;5071030;28;20255;-68
2021/06/26 06:47:08;;;;;;;34.17;23.57;;;19.20;99.90;;;;;;5071387;28;20277;-68
2021/06/26 06:49:36;;;;;;;32.67;23.90;;;19.30;99.90;;;;;;5071528;28;20672;-67
2021/06/26 06:52:03;;;;;;;31.73;24.13;;;19.40;99.90;;;;;;5071324;28;20200;-67
2021/06/26 06:54:29;;;;;;;34.23;22.90;;;19.40;99.90;;;;;;5071132;28;20224;-69
2021/06/26 06:56:56;;;;;;;28.63;23.13;;;19.30;99.90;;;;;;5070328;28;20213;-67
2021/06/26 06:59:23;;;;;;;28.50;22.00;;;19.50;99.90;;;;;;5071481;28;20205;-71
2021/06/26 07:01:50;;;;;;;27.20;20.30;;;19.60;99.90;;;;;;5071079;28;20229;-66
2021/06/26 07:07:09;;;;;;;21.50;16.83;;;19.80;99.90;;;;;;5085074;27;20537;-69
2021/06/26 07:09:45;;;;;;;17.27;14.17;;;20.00;99.90;;;;;;5085549;28;20212;-68
2021/06/26 07:12:12;;;;;;;17.23;13.87;;;20.20;99.90;;;;;;5085527;28;20208;-68
2021/06/26 07:14:39;;;;;;;20.67;16.00;;;20.30;99.90;;;;;;5085986;28;20239;-68
2021/06/26 07:17:05;;;;;;;18.60;14.77;;;20.50;99.90;;;;;;5084602;28;20306;-68
2021/06/26 07:19:32;;;;;;;22.27;15.63;;;20.50;99.90;;;;;;5085902;28;20676;-66
2021/06/26 07:21:59;;;;;;;15.97;13.93;;;20.60;99.90;;;;;;5085528;28;20667;-67
2021/06/26 07:24:27;;;;;;;17.70;14.03;;;20.80;99.90;;;;;;5084567;28;20659;-69
2021/06/26 07:26:54;;;;;;;17.43;12.93;;;21.00;99.90;;;;;;5084879;28;20715;-69
2021/06/26 07:29:21;;;;;;;16.83;13.13;;;21.10;99.90;;;;;;5085925;28;20212;-69
2021/06/26 07:31:48;;;;;;;16.47;13.73;;;21.20;99.90;;;;;;5085415;28;20209;-69
2021/06/26 07:34:15;;;;;;;19.77;13.97;;;21.20;99.90;;;;;;5085265;28;20212;-69
2021/06/26 07:36:42;;;;;;;16.60;13.03;;;21.30;99.90;;;;;;5085544;28;20289;-68
2021/06/26 07:39:08;;;;;;;14.30;12.17;;;21.40;99.90;;;;;;5085737;28;20204;-65
2021/06/26 07:41:36;;;;;;;16.47;12.20;;;21.70;99.90;;;;;;5085244;28;20236;-66
2021/06/26 07:44:03;;;;;;;13.90;11.37;;;21.80;99.90;;;;;;5085459;28;20204;-65
2021/06/26 07:46:30;;;;;;;13.17;11.00;;;22.00;99.90;;;;;;5085110;28;20231;-66
2021/06/26 07:48:57;;;;;;;16.60;11.43;;;22.10;99.90;;;;;;5085384;28;20212;-66
2021/06/26 07:51:23;;;;;;;12.87;11.17;;;22.10;99.90;;;;;;5085383;28;20269;-66
2021/06/26 07:53:50;;;;;;;13.63;10.83;;;22.20;99.90;;;;;;5084940;28;20733;-66
2021/06/26 07:56:17;;;;;;;12.87;10.60;;;22.40;99.90;;;;;;5085185;28;20228;-63
2021/06/26 07:58:45;;;;;;;12.13;10.83;;;22.40;99.90;;;;;;5085308;28;20205;-64
2021/06/26 08:01:11;;;;;;;12.63;11.00;;;22.50;99.90;;;;;;5085054;28;20277;-64
2021/06/26 08:03:38;;;;;;;15.20;11.37;;;22.60;99.90;;;;;;5085085;28;20209;-64
2021/06/26 08:06:05;;;;;;;13.27;10.40;;;22.80;99.90;;;;;;5084566;28;20240;-64
2021/06/26 08:08:31;;;;;;;15.53;9.73;;;23.00;99.90;;;;;;5084769;28;20204;-64
2021/06/26 08:10:58;;;;;;;12.80;9.57;;;23.20;99.90;;;;;;5085165;28;20269;-64
2021/06/26 08:13:25;;;;;;;11.97;9.80;;;23.20;99.90;;;;;;5085282;28;20205;-61
2021/06/26 08:15:53;;;;;;;13.30;10.53;;;23.40;99.90;;;;;;5084600;28;20225;-64
2021/06/26 08:18:20;;;;;;;9.73;8.63;;;23.60;99.90;;;;;;5071188;28;20258;-64
2021/06/26 08:20:46;;;;;;;12.23;9.30;;;23.70;99.90;;;;;;5071287;28;20255;-66
2021/06/26 08:23:13;;;;;;;10.40;8.60;;;23.70;99.90;;;;;;5071342;28;20681;-66
2021/06/26 08:25:40;;;;;;;13.00;9.37;;;23.70;99.90;;;;;;5070833;28;20233;-63
2021/06/26 08:28:07;;;;;;;10.67;8.00;;;23.80;99.90;;;;;;5070738;28;20704;-64
2021/06/26 08:30:34;;;;;;;9.93;8.03;;;23.60;99.90;;;;;;5071236;28;20216;-65
2021/06/26 08:33:02;;;;;;;10.17;7.27;;;23.50;99.90;;;;;;5070677;28;20266;-65
2021/06/26 08:35:29;;;;;;;8.10;7.30;;;23.60;99.90;;;;;;5070550;28;20283;-64
2021/06/26 08:37:56;;;;;;;9.03;8.07;;;23.60;99.90;;;;;;5069674;28;20189;-62
2021/06/26 08:40:23;;;;;;;9.33;7.90;;;23.70;99.90;;;;;;5070972;28;20209;-62
2021/06/26 08:42:50;;;;;;;9.73;7.77;;;23.80;99.90;;;;;;5072292;28;20580;-63
2021/06/26 08:45:19;;;;;;;10.20;7.47;;;23.90;99.90;;;;;;5073967;28;20312;-62
2021/06/26 08:47:47;;;;;;;8.83;7.23;;;24.00;99.90;;;;;;5074176;28;20288;-64
2021/06/26 08:50:16;;;;;;;9.07;7.20;;;24.10;99.90;;;;;;5074029;28;20201;-62
2021/06/26 08:52:43;;;;;;;8.37;7.07;;;24.30;99.90;;;;;;5074315;28;20205;-63
2021/06/26 08:55:10;;;;;;;8.93;7.30;;;24.20;99.90;;;;;;5073822;28;20278;-64
2021/06/26 08:57:39;;;;;;;9.43;7.10;;;24.10;99.90;;;;;;5074219;28;20258;-63
2021/06/26 09:00:08;;;;;;;7.53;6.80;;;24.20;99.90;;;;;;5073968;28;20208;-63
2021/06/26 09:02:35;;;;;;;8.47;7.07;;;24.30;99.90;;;;;;5073828;28;20205;-66
2021/06/26 09:05:04;;;;;;;8.50;6.80;;;24.40;99.90;;;;;;5073250;28;20761;-63
2021/06/26 09:07:34;;;;;;;7.57;6.77;;;24.40;99.90;;;;;;5074067;28;20208;-64
2021/06/26 09:10:12;;;;;;;7.53;6.63;;;24.20;99.90;;;;;;5073729;28;20209;-63
2021/06/26 09:12:40;;;;;;;9.07;6.20;;;23.90;99.90;;;;;;5073121;28;20205;-63
2021/06/26 09:15:09;;;;;;;7.23;6.40;;;23.90;99.90;;;;;;5073080;28;20268;-62
2021/06/26 09:17:36;;;;;;;6.17;5.57;;;24.00;99.90;;;;;;5073886;28;20311;-63
2021/06/26 09:20:08;;;;;;;6.97;5.67;;;24.10;99.90;;;;;;5073592;28;20300;-64
2021/06/26 09:22:40;;;;;;;7.17;6.00;;;24.10;99.90;;;;;;5073614;28;20571;-63
2021/06/26 09:25:24;;;;;;;7.43;6.10;;;24.20;99.90;;;;;;5073027;28;20224;-64
2021/06/26 09:27:51;;;;;;;7.57;6.77;;;24.20;99.90;;;;;;5073365;28;20247;-63
2021/06/26 09:30:18;;;;;;;7.77;6.67;;;24.40;99.90;;;;;;5072577;28;20209;-63
2021/06/26 09:32:45;;;;;;;6.60;5.90;;;23.90;99.90;;;;;;5073487;28;20259;-63
2021/06/26 09:35:16;;;;;;;7.13;6.43;;;23.60;99.90;;;;;;5072925;28;20225;-63
2021/06/26 09:37:44;;;;;;;9.70;6.60;;;23.30;99.90;;;;;;5073283;28;20205;-64
2021/06/26 09:40:13;;;;;;;7.73;6.80;;;23.30;99.90;;;;;;5072950;28;20205;-63
2021/06/26 09:42:40;;;;;;;7.67;6.60;;;23.50;99.90;;;;;;5073180;28;20258;-62
2021/06/26 09:45:08;;;;;;;7.93;7.13;;;23.90;99.90;;;;;;5072755;28;20228;-64
2021/06/26 09:47:37;;;;;;;10.10;7.07;;;24.00;99.90;;;;;;5072963;28;20228;-64
2021/06/26 09:50:15;;;;;;;8.77;6.87;;;24.00;99.90;;;;;;5073054;28;20249;-64
2021/06/26 09:52:45;;;;;;;9.00;7.23;;;24.00;99.90;;;;;;5072712;28;20715;-64
2021/06/26 09:55:17;;;;;;;7.80;7.00;;;23.70;99.90;;;;;;5072662;28;20225;-64
2021/06/26 09:57:44;;;;;;;10.50;7.07;;;23.80;99.90;;;;;;5072800;28;20677;-64
2021/06/26 10:00:12;;;;;;;8.87;6.93;;;24.00;99.90;;;;;;5072887;28;20617;-64
2021/06/26 10:02:38;;;;;;;8.27;7.33;;;24.00;99.90;;;;;;5072660;28;20213;-63
2021/06/26 10:05:07;;;;;;;8.70;7.23;;;23.90;99.90;;;;;;5072115;28;20228;-64
2021/06/26 10:07:34;;;;;;;7.47;6.70;;;24.00;99.90;;;;;;5072681;28;20224;-64
2021/06/26 10:10:02;;;;;;;7.77;6.80;;;24.20;99.90;;;;;;5072807;28;20209;-63
2021/06/26 10:12:29;;;;;;;7.70;7.00;;;24.20;99.90;;;;;;5072621;28;20205;-63
2021/06/26 10:14:57;;;;;;;8.00;7.20;;;24.20;99.90;;;;;;5072254;28;20229;-64
2021/06/26 10:17:25;;;;;;;10.90;7.03;;;24.10;99.90;;;;;;5072466;28;20208;-63
2021/06/26 10:19:52;;;;;;;10.53;7.17;;;24.10;99.90;;;;;;5072476;28;20687;-64
2021/06/26 10:22:19;;;;;;;8.77;7.27;;;24.00;99.90;;;;;;5072737;28;20212;-63
2021/06/26 10:24:47;;;;;;;8.33;7.20;;;24.10;99.90;;;;;;5072317;28;20645;-64
2021/06/26 10:27:19;;;;;;;7.90;6.63;;;24.20;99.90;;;;;;5067344;28;20718;-62
2021/06/26 10:29:46;;;;;;;8.10;7.30;;;24.30;99.90;;;;;;5069165;28;20209;-64
2021/06/26 10:32:15;;;;;;;7.70;6.67;;;24.60;99.90;;;;;;5068929;28;20238;-63
2021/06/26 10:34:44;;;;;;;7.27;6.57;;;24.90;99.90;;;;;;5068697;28;20228;-65
2021/06/26 10:37:16;;;;;;;8.20;7.30;;;25.20;99.90;;;;;;5069740;28;20308;-62
2021/06/26 10:39:43;;;;;;;8.03;7.23;;;25.30;99.90;;;;;;5068964;28;20213;-62
2021/06/26 10:42:11;;;;;;;8.80;7.07;;;25.20;99.90;;;;;;5068755;28;20262;-67
2021/06/26 10:44:45;;;;;;;9.37;7.40;;;25.10;99.90;;;;;;5068403;28;20278;-69
2021/06/26 10:47:12;;;;;;;8.27;7.40;;;25.00;99.90;;;;;;5068476;28;20236;-70
2021/06/26 10:49:40;;;;;;;8.30;6.40;;;25.00;99.90;;;;;;5068900;28;20217;-69
2021/06/26 10:52:09;;;;;;;9.80;6.97;;;24.90;99.90;;;;;;5068657;28;20217;-67
2021/06/26 10:54:37;;;;;;;7.23;6.30;;;24.80;99.90;;;;;;5068680;28;20237;-67
2021/06/26 10:57:06;;;;;;;7.80;7.00;;;24.70;99.90;;;;;;5068830;28;20201;-66
2021/06/26 10:59:33;;;;;;;12.00;7.37;;;24.80;99.90;;;;;;5069217;28;20669;-67
2021/06/26 11:02:04;;;;;;;10.97;6.77;;;24.60;99.90;;;;;;5068872;28;20562;-68
2021/06/26 11:04:31;;;;;;;10.00;6.37;;;24.60;99.90;;;;;;5068309;28;20205;-67
2021/06/26 11:07:06;;;;;;;7.90;6.37;;;24.40;99.90;;;;;;5068051;28;20236;-66
2021/06/26 11:09:38;;;;;;;7.73;6.50;;;24.20;99.90;;;;;;5068550;28;20733;-68
2021/06/26 11:12:09;;;;;;;7.60;6.30;;;24.40;99.90;;;;;;5068501;28;20212;-66
2021/06/26 11:14:36;;;;;;;8.23;6.57;;;24.60;99.90;;;;;;5068218;28;20229;-67
2021/06/26 11:17:06;;;;;;;7.57;6.77;;;24.30;99.90;;;;;;5068486;28;20213;-69
2021/06/26 11:19:35;;;;;;;6.87;6.20;;;24.50;99.90;;;;;;5068283;28;20220;-67
2021/06/26 11:22:03;;;;;;;8.27;7.00;;;24.60;99.90;;;;;;5068309;28;20300;-68
2021/06/26 11:24:35;;;;;;;7.97;6.83;;;24.70;99.90;;;;;;5067933;28;20213;-68
2021/06/26 11:27:03;;;;;;;9.00;7.10;;;24.80;99.90;;;;;;5068061;28;20651;-68
2021/06/26 11:29:32;;;;;;;8.23;6.30;;;25.00;99.90;;;;;;5068283;28;20224;-67
2021/06/26 11:32:01;;;;;;;9.93;8.03;;;25.10;99.90;;;;;;5068107;28;20224;-66
2021/06/26 11:34:29;;;;;;;8.20;7.13;;;25.10;99.90;;;;;;5067922;28;20232;-66
2021/06/26 11:37:03;;;;;;;7.23;6.53;;;25.10;99.90;;;;;;5067885;28;20275;-66
2021/06/26 11:39:30;;;;;;;9.20;6.83;;;25.30;99.90;;;;;;5068391;28;20244;-66
2021/06/26 11:41:57;;;;;;;9.80;6.97;;;25.50;99.90;;;;;;5068066;28;20239;-66
2021/06/26 11:44:34;;;;;;;7.77;6.40;;;25.60;99.90;;;;;;5068044;28;20270;-66
2021/06/26 11:47:02;;;;;;;11.43;6.60;;;25.50;99.90;;;;;;5067669;28;20311;-68
2021/06/26 11:49:34;;;;;;;10.13;7.00;;;25.50;99.90;;;;;;5068381;28;20437;-66
2021/06/26 11:52:01;;;;;;;8.30;6.67;;;25.20;99.90;;;;;;5069039;28;20266;-66
2021/06/26 11:54:29;;;;;;;9.53;7.00;;;25.20;99.90;;;;;;5071499;28;20215;-66
2021/06/26 11:56:55;;;;;;;9.30;6.93;;;25.30;99.90;;;;;;5071489;28;20205;-66
2021/06/26 11:59:22;;;;;;;8.27;6.40;;;25.50;99.90;;;;;;5071689;28;20217;-66
2021/06/26 12:01:50;;;;;;;10.87;7.97;;;25.70;99.90;;;;;;5071527;28;20310;-67
2021/06/26 12:04:28;;;;;;;7.73;7.03;;;25.70;99.90;;;;;;5071428;28;20240;-67
2021/06/26 12:06:56;;;;;;;11.17;7.27;;;25.70;99.90;;;;;;5071483;28;20697;-66
2021/06/26 12:09:24;;;;;;;9.60;7.33;;;25.90;99.90;;;;;;5071313;28;20700;-66
2021/06/26 12:11:52;;;;;;;10.03;7.47;;;25.60;99.90;;;;;;5071605;28;20689;-66
2021/06/26 12:14:27;;;;;;;9.97;7.70;;;25.50;99.90;;;;;;5070957;28;20212;-66
2021/06/26 12:17:01;;;;;;;7.73;6.93;;;25.50;99.90;;;;;;5071189;28;20296;-66
2021/06/26 12:19:30;;;;;;;7.90;6.63;;;25.50;99.90;;;;;;5071229;28;20215;-67
2021/06/26 12:21:59;;;;;;;7.03;6.33;;;25.70;99.90;;;;;;5071205;28;20788;-67
2021/06/26 12:24:27;;;;;;;6.50;5.80;;;25.70;99.90;;;;;;5070723;28;20722;-67
2021/06/26 12:27:11;;;;;;;9.57;6.50;;;25.70;99.90;;;;;;5069967;28;20278;-66
2021/06/26 12:29:40;;;;;;;8.30;6.07;;;25.70;99.90;;;;;;5070954;28;20213;-65
2021/06/26 12:32:07;;;;;;;10.77;6.47;;;25.80;99.90;;;;;;5070641;28;20213;-67
2021/06/26 12:34:46;;;;;;;9.60;7.00;;;26.00;99.90;;;;;;5070690;28;20216;-66
2021/06/26 12:37:14;;;;;;;7.20;5.90;;;26.30;99.90;;;;;;5070405;28;20291;-67
2021/06/26 12:39:41;;;;;;;7.23;5.83;;;26.20;99.90;;;;;;5070810;28;20677;-66
2021/06/26 12:42:11;;;;;;;7.00;6.37;;;26.10;99.90;;;;;;5071031;28;20783;-66